createdAt,value
2022-12-25T00:01:11.004Z,7.50
2022-12-25T00:03:38.345Z,7.50
2022-12-25T00:06:05.892Z,7.50
2022-12-25T00:08:33.131Z,7.50
2022-12-25T00:11:09.363Z,7.50
2022-12-25T00:13:36.077Z,7.40
2022-12-25T00:16:12.980Z,7.40
2022-12-25T00:18:39.735Z,7.40
2022-12-25T00:21:07.769Z,7.40
2022-12-25T00:23:35.622Z,7.50
2022-12-25T00:26:11.390Z,7.40
2022-12-25T00:28:38.474Z,7.40
2022-12-25T00:31:07.341Z,7.40
2022-12-25T00:33:38.141Z,7.40
2022-12-25T00:36:06.428Z,7.50
2022-12-25T00:38:34.647Z,7.50
2022-12-25T00:41:09.214Z,7.60
2022-12-25T00:43:36.540Z,7.50
2022-12-25T00:46:06.073Z,7.60
2022-12-25T00:48:33.755Z,7.60
2022-12-25T00:51:03.611Z,7.60
2022-12-25T00:53:30.814Z,7.60
2022-12-25T00:56:05.003Z,7.60
2022-12-25T00:58:33.677Z,7.60
2022-12-25T01:01:00.503Z,7.70
2022-12-25T01:03:27.867Z,7.80
2022-12-25T01:05:57.556Z,7.90
2022-12-25T01:08:25.093Z,7.90
2022-12-25T01:11:00.572Z,7.90
2022-12-25T01:13:28.829Z,7.90
2022-12-25T01:15:55.625Z,7.90
2022-12-25T01:18:24.345Z,7.90
2022-12-25T01:20:51.322Z,7.90
2022-12-25T01:23:18.088Z,7.90
2022-12-25T01:25:44.876Z,7.90
2022-12-25T01:28:11.693Z,7.90
2022-12-25T01:30:39.620Z,7.90
2022-12-25T01:33:06.455Z,8.00
2022-12-25T01:35:33.184Z,8.00
2022-12-25T01:37:59.932Z,8.00
2022-12-25T01:40:26.684Z,8.00
2022-12-25T01:42:53.420Z,8.00
2022-12-25T01:45:44.276Z,7.90
2022-12-25T01:48:19.458Z,8.00
2022-12-25T01:50:50.100Z,7.90
2022-12-25T01:53:17.135Z,7.90
2022-12-25T01:55:46.315Z,7.90
2022-12-25T01:58:13.611Z,7.90
2022-12-25T02:00:40.491Z,7.90
2022-12-25T02:03:07.538Z,7.90
2022-12-25T02:05:35.285Z,7.90
2022-12-25T02:10:44.786Z,7.90
2022-12-25T02:13:14.167Z,7.90
2022-12-25T02:16:05.887Z,8.00
2022-12-25T02:18:54.025Z,7.90
2022-12-25T02:21:32.755Z,7.90
2022-12-25T02:24:37.033Z,7.90
2022-12-25T02:27:26.533Z,8.00
2022-12-25T02:30:10.835Z,8.00
2022-12-25T02:33:16.122Z,8.00
2022-12-25T02:35:46.476Z,8.00
2022-12-25T02:38:20.334Z,8.00
2022-12-25T02:40:59.196Z,8.00
2022-12-25T02:43:57.447Z,8.00
2022-12-25T02:46:45.079Z,8.00
2022-12-25T02:49:37.636Z,8.00
2022-12-25T02:52:29.045Z,8.00
2022-12-25T02:55:27.213Z,8.10
2022-12-25T02:58:16.530Z,8.10
2022-12-25T03:01:07.683Z,8.00
2022-12-25T03:03:59.264Z,7.90
2022-12-25T03:06:44.186Z,7.90
2022-12-25T03:09:35.791Z,7.90
2022-12-25T03:12:11.195Z,7.90
2022-12-25T03:14:57.603Z,7.90
2022-12-25T03:17:25.025Z,7.90
2022-12-25T03:20:10.263Z,7.90
2022-12-25T03:22:56.389Z,8.00
2022-12-25T03:25:41.808Z,8.10
2022-12-25T03:28:08.553Z,8.10
2022-12-25T03:31:12.159Z,8.10
2022-12-25T03:34:12.689Z,8.10
2022-12-25T03:39:53.976Z,8.10
2022-12-25T03:43:10.377Z,8.20
2022-12-25T03:46:04.411Z,8.20
2022-12-25T03:48:54.896Z,8.10
2022-12-25T03:51:48.514Z,8.10
2022-12-25T03:54:39.559Z,8.20
2022-12-25T03:57:25.063Z,8.20
2022-12-25T04:00:10.662Z,8.20
2022-12-25T04:02:56.652Z,8.20
2022-12-25T04:05:42.042Z,8.20
2022-12-25T04:08:27.618Z,8.20
2022-12-25T04:11:13.170Z,8.20
2022-12-25T04:13:58.714Z,8.20
2022-12-25T04:16:44.145Z,8.20
2022-12-25T04:19:29.845Z,8.30
2022-12-25T04:22:15.393Z,8.30
2022-12-25T04:25:00.691Z,8.20
2022-12-25T04:27:46.184Z,8.10
2022-12-25T04:30:31.599Z,8.00
2022-12-25T04:33:19.595Z,8.00
2022-12-25T04:36:06.712Z,7.90
2022-12-25T04:38:33.967Z,7.90
2022-12-25T04:41:01.785Z,7.90
2022-12-25T04:43:28.929Z,7.80
2022-12-25T04:45:57.811Z,7.70
2022-12-25T04:48:25.682Z,7.70
2022-12-25T04:50:52.914Z,7.60
2022-12-25T04:53:19.975Z,7.60
2022-12-25T04:55:46.715Z,7.60
2022-12-25T04:58:13.714Z,7.50
2022-12-25T05:00:41.145Z,7.40
2022-12-25T05:03:08.036Z,7.30
2022-12-25T05:05:38.265Z,7.30
2022-12-25T05:08:05.878Z,7.30
2022-12-25T05:10:32.623Z,7.30
2022-12-25T05:12:59.359Z,7.20
2022-12-25T05:15:26.089Z,7.10
2022-12-25T05:17:52.868Z,7.10
2022-12-25T05:20:19.614Z,7.00
2022-12-25T05:22:46.336Z,7.10
2022-12-25T05:25:13.085Z,7.10
2022-12-25T05:27:39.901Z,7.10
2022-12-25T05:30:07.308Z,7.10
2022-12-25T05:32:34.081Z,7.10
2022-12-25T05:35:00.844Z,7.00
2022-12-25T05:37:27.595Z,7.00
2022-12-25T05:39:54.368Z,6.90
2022-12-25T05:42:21.157Z,6.90
2022-12-25T05:44:47.973Z,7.00
2022-12-25T05:47:14.765Z,7.10
2022-12-25T05:49:42.149Z,7.30
2022-12-25T05:52:08.890Z,7.50
2022-12-25T05:54:35.712Z,7.60
2022-12-25T05:57:02.905Z,7.80
2022-12-25T05:59:30.954Z,7.90
2022-12-25T06:01:58.006Z,8.00
2022-12-25T06:04:24.933Z,8.00
2022-12-25T06:06:51.725Z,8.00
2022-12-25T06:09:18.668Z,8.10
2022-12-25T06:11:45.613Z,8.10
2022-12-25T06:14:14.085Z,8.20
2022-12-25T06:16:41.085Z,8.30
2022-12-25T06:19:07.885Z,8.30
2022-12-25T06:21:34.671Z,8.30
2022-12-25T06:24:01.654Z,8.30
2022-12-25T06:26:28.737Z,8.30
2022-12-25T06:28:55.461Z,8.40
2022-12-25T06:31:23.816Z,8.40
2022-12-25T06:33:51.084Z,8.50
2022-12-25T06:36:26.097Z,8.50
2022-12-25T06:38:53.921Z,8.60
2022-12-25T06:41:23.960Z,8.60
2022-12-25T06:43:53.520Z,8.70
2022-12-25T06:46:21.441Z,8.70
2022-12-25T06:48:49.910Z,8.80
2022-12-25T06:51:21.941Z,8.80
2022-12-25T06:53:49.623Z,8.80
2022-12-25T06:56:20.269Z,8.80
2022-12-25T06:58:58.232Z,8.80
2022-12-25T07:01:47.128Z,8.80
2022-12-25T07:04:24.976Z,8.70
2022-12-25T07:06:52.208Z,8.80
2022-12-25T07:09:18.994Z,8.80
2022-12-25T07:11:45.793Z,8.90
2022-12-25T07:14:23.449Z,8.80
2022-12-25T07:16:51.435Z,8.80
2022-12-25T07:19:19.289Z,8.80
2022-12-25T07:21:46.407Z,8.80
2022-12-25T07:24:21.606Z,8.70
2022-12-25T07:26:49.036Z,8.70
2022-12-25T07:29:15.890Z,8.70
2022-12-25T07:31:42.775Z,8.70
2022-12-25T07:34:09.760Z,8.70
2022-12-25T07:36:36.531Z,8.70
2022-12-25T07:39:03.938Z,8.70
2022-12-25T07:41:30.729Z,8.60
2022-12-25T07:43:57.538Z,8.60
2022-12-25T07:46:24.389Z,8.70
2022-12-25T07:48:51.969Z,8.60
2022-12-25T07:51:18.802Z,8.60
2022-12-25T07:53:45.697Z,8.60
2022-12-25T07:56:15.486Z,8.60
2022-12-25T07:58:43.264Z,8.60
2022-12-25T08:01:14.249Z,8.70
2022-12-25T08:03:41.301Z,8.80
2022-12-25T08:06:10.364Z,8.80
2022-12-25T08:08:38.461Z,8.90
2022-12-25T08:11:08.248Z,8.90
2022-12-25T08:13:35.218Z,8.90
2022-12-25T08:16:04.187Z,9.00
2022-12-25T08:18:32.107Z,9.00
2022-12-25T08:21:11.261Z,9.10
2022-12-25T08:23:40.853Z,9.20
2022-12-25T08:26:10.627Z,9.10
2022-12-25T08:28:37.408Z,9.20
2022-12-25T08:31:19.632Z,9.10
2022-12-25T08:33:47.155Z,9.20
2022-12-25T08:36:14.121Z,9.20
2022-12-25T08:38:41.858Z,9.30
2022-12-25T08:41:09.474Z,9.20
2022-12-25T08:43:36.634Z,9.30
2022-12-25T08:46:04.107Z,9.30
2022-12-25T08:48:30.994Z,9.30
2022-12-25T08:50:58.063Z,9.20
2022-12-25T08:53:25.068Z,9.20
2022-12-25T08:55:58.527Z,9.20
2022-12-25T08:58:25.925Z,9.10
2022-12-25T09:00:52.743Z,9.00
2022-12-25T09:03:19.594Z,8.90
2022-12-25T09:05:46.974Z,8.90
2022-12-25T09:08:13.813Z,8.90
2022-12-25T09:10:40.926Z,9.00
2022-12-25T09:13:07.962Z,9.00
2022-12-25T09:15:34.764Z,8.90
2022-12-25T09:18:01.579Z,8.80
2022-12-25T09:20:28.355Z,8.80
2022-12-25T09:22:55.175Z,8.80
2022-12-25T09:25:21.943Z,8.80
2022-12-25T09:27:48.702Z,8.80
2022-12-25T09:30:15.523Z,8.80
2022-12-25T09:32:42.276Z,8.90
2022-12-25T09:35:09.822Z,8.80
2022-12-25T09:37:36.830Z,8.90
2022-12-25T09:40:04.556Z,8.90
2022-12-25T09:42:32.426Z,8.90
2022-12-25T09:45:12.398Z,8.90
2022-12-25T09:47:41.992Z,8.90
2022-12-25T09:50:16.565Z,9.00
2022-12-25T09:52:49.016Z,9.00
2022-12-25T09:55:21.542Z,9.00
2022-12-25T09:57:54.330Z,9.00
2022-12-25T10:00:23.145Z,9.10
2022-12-25T10:03:08.796Z,9.10
2022-12-25T10:06:13.266Z,9.00
2022-12-25T10:09:20.708Z,9.20
2022-12-25T10:12:04.331Z,9.20
2022-12-25T10:15:00.248Z,9.20
2022-12-25T10:17:40.081Z,9.30
2022-12-25T10:20:21.267Z,9.30
2022-12-25T10:22:55.323Z,9.30
2022-12-25T10:25:24.321Z,9.30
2022-12-25T10:28:09.766Z,9.40
2022-12-25T10:30:36.909Z,9.40
2022-12-25T10:33:06.287Z,9.40
2022-12-25T10:35:37.434Z,9.40
2022-12-25T10:38:14.814Z,9.40
2022-12-25T10:41:02.789Z,9.40
2022-12-25T10:43:52.956Z,9.40
2022-12-25T10:46:21.878Z,9.40
2022-12-25T10:48:53.828Z,9.40
2022-12-25T10:51:47.025Z,9.30
2022-12-25T10:54:35.693Z,9.40
2022-12-25T10:57:08.675Z,9.40
2022-12-25T10:59:43.259Z,9.40
2022-12-25T11:02:32.513Z,9.40
2022-12-25T11:05:09.804Z,9.40
2022-12-25T11:07:50.905Z,9.40
2022-12-25T11:10:30.590Z,9.40
2022-12-25T11:13:02.699Z,9.50
2022-12-25T11:15:45.018Z,9.50
2022-12-25T11:18:29.789Z,9.40
2022-12-25T11:21:02.550Z,9.40
2022-12-25T11:23:32.365Z,9.60
2022-12-25T11:26:04.826Z,9.60
2022-12-25T11:28:34.523Z,9.40
2022-12-25T11:31:23.872Z,9.40
2022-12-25T11:34:33.974Z,9.50
2022-12-25T11:37:02.796Z,9.50
2022-12-25T11:39:38.497Z,9.40
2022-12-25T11:42:24.588Z,9.50
2022-12-25T11:45:16.442Z,9.50
2022-12-25T11:47:54.472Z,9.50
2022-12-25T11:50:30.933Z,9.50
2022-12-25T11:53:02.153Z,9.60
2022-12-25T11:55:54.531Z,9.60
2022-12-25T11:58:40.199Z,9.60
2022-12-25T12:01:34.397Z,9.50
2022-12-25T12:04:03.879Z,9.50
2022-12-25T12:06:35.985Z,9.50
2022-12-25T12:09:12.181Z,9.50
2022-12-25T12:11:48.521Z,9.50
2022-12-25T12:14:15.288Z,9.50
2022-12-25T12:16:42.319Z,9.50
2022-12-25T12:19:30.005Z,9.50
2022-12-25T12:22:00.481Z,9.60
2022-12-25T12:24:50.149Z,9.60
2022-12-25T12:27:25.341Z,9.60
2022-12-25T12:29:58.466Z,9.90
2022-12-25T12:32:46.037Z,9.80
2022-12-25T12:35:26.774Z,9.70
2022-12-25T12:38:01.600Z,9.70
2022-12-25T12:40:56.008Z,9.70
2022-12-25T12:43:45.591Z,9.80
2022-12-25T12:46:21.537Z,9.90
2022-12-25T12:48:53.765Z,9.80
2022-12-25T12:51:33.522Z,9.80
2022-12-25T12:54:20.461Z,9.90
2022-12-25T12:57:21.599Z,9.90
2022-12-25T12:59:48.505Z,9.90
2022-12-25T13:02:18.398Z,9.70
2022-12-25T13:05:05.022Z,9.70
2022-12-25T13:07:35.971Z,9.60
2022-12-25T13:10:14.573Z,9.70
2022-12-25T13:12:41.482Z,9.90
2022-12-25T13:15:13.842Z,9.80
2022-12-25T13:17:44.868Z,9.70
2022-12-25T13:20:24.625Z,9.70
2022-12-25T13:22:53.129Z,9.60
2022-12-25T13:25:23.967Z,9.60
2022-12-25T13:27:57.551Z,9.60
2022-12-25T13:30:25.064Z,9.60
2022-12-25T13:32:51.975Z,9.60
2022-12-25T13:35:21.261Z,9.60
2022-12-25T13:37:48.271Z,9.70
2022-12-25T13:40:25.567Z,9.60
2022-12-25T13:42:58.725Z,9.70
2022-12-25T13:45:28.243Z,9.80
2022-12-25T13:47:56.115Z,9.90
2022-12-25T13:50:34.557Z,9.80
2022-12-25T13:53:13.033Z,9.80
2022-12-25T13:55:41.772Z,9.80
2022-12-25T13:58:22.403Z,9.80
2022-12-25T14:00:53.031Z,9.90
2022-12-25T14:03:24.393Z,9.90
2022-12-25T14:06:01.155Z,9.80
2022-12-25T14:08:33.375Z,9.90
2022-12-25T14:11:05.901Z,9.80
2022-12-25T14:13:40.965Z,9.90
2022-12-25T14:16:08.631Z,9.90
2022-12-25T14:18:35.915Z,9.90
2022-12-25T14:21:05.832Z,9.90
2022-12-25T14:23:46.873Z,9.90
2022-12-25T14:26:21.210Z,9.90
2022-12-25T14:29:17.832Z,9.80
2022-12-25T14:31:47.551Z,9.70
2022-12-25T14:34:21.762Z,9.70
2022-12-25T14:36:49.506Z,9.80
2022-12-25T14:39:37.354Z,9.90
2022-12-25T14:42:21.062Z,9.90
2022-12-25T14:45:04.626Z,9.90
2022-12-25T14:47:33.759Z,9.80
2022-12-25T14:50:00.856Z,9.70
2022-12-25T14:52:42.686Z,9.70
2022-12-25T14:55:20.457Z,9.70
2022-12-25T14:57:53.993Z,9.70
2022-12-25T15:00:25.631Z,9.80
2022-12-25T15:02:55.591Z,9.80
2022-12-25T15:05:29.696Z,9.70
2022-12-25T15:08:01.559Z,9.60
2022-12-25T15:10:58.891Z,9.60
2022-12-25T15:13:18.839Z,9.60
2022-12-25T15:16:04.328Z,9.70
2022-12-25T15:18:38.555Z,9.70
2022-12-25T15:21:05.994Z,9.60
2022-12-25T15:23:32.835Z,9.60
2022-12-25T15:25:59.695Z,9.60
2022-12-25T15:28:26.976Z,9.60
2022-12-25T15:30:53.767Z,9.50
2022-12-25T15:33:20.729Z,9.50
2022-12-25T15:35:47.664Z,9.50
2022-12-25T15:38:14.879Z,9.50
2022-12-25T15:40:42.482Z,9.50
2022-12-25T15:43:39.562Z,9.40
2022-12-25T15:46:01.355Z,9.40
2022-12-25T15:48:28.143Z,9.40
2022-12-25T15:50:54.867Z,9.50
2022-12-25T15:53:21.711Z,9.50
2022-12-25T15:55:49.261Z,9.40
2022-12-25T15:58:16.010Z,9.40
2022-12-25T16:00:42.810Z,9.40
2022-12-25T16:03:09.745Z,9.40
2022-12-25T16:05:36.744Z,9.40
2022-12-25T16:08:03.569Z,9.40
2022-12-25T16:10:36.613Z,9.40
2022-12-25T16:13:05.454Z,9.40
2022-12-25T16:15:32.256Z,9.40
2022-12-25T16:17:59.035Z,9.40
2022-12-25T16:20:26.069Z,9.40
2022-12-25T16:22:52.811Z,9.40
2022-12-25T16:25:20.149Z,9.40
2022-12-25T16:27:47.062Z,9.30
2022-12-25T16:30:18.123Z,9.30
2022-12-25T16:32:49.320Z,9.30
2022-12-25T16:35:16.159Z,9.30
2022-12-25T16:37:42.996Z,9.30
2022-12-25T16:40:11.006Z,9.30
2022-12-25T16:42:40.377Z,9.30
2022-12-25T16:45:07.726Z,9.30
2022-12-25T16:47:35.004Z,9.30
2022-12-25T16:50:03.604Z,9.20
2022-12-25T16:52:31.775Z,9.20
2022-12-25T16:54:58.903Z,9.30
2022-12-25T16:57:25.694Z,9.30
2022-12-25T16:59:55.849Z,9.30
2022-12-25T17:02:23.061Z,9.30
2022-12-25T17:04:50.245Z,9.30
2022-12-25T17:07:17.941Z,9.30
2022-12-25T17:09:48.372Z,9.30
2022-12-25T17:12:16.091Z,9.40
2022-12-25T17:14:43.196Z,9.40
2022-12-25T17:17:10.101Z,9.40
2022-12-25T17:19:36.929Z,9.40
2022-12-25T17:22:03.901Z,9.40
2022-12-25T17:24:30.830Z,9.30
2022-12-25T17:26:57.849Z,9.30
2022-12-25T17:29:25.242Z,9.30
2022-12-25T17:31:52.529Z,9.30
2022-12-25T17:34:19.632Z,9.30
2022-12-25T17:36:46.364Z,9.30
2022-12-25T17:39:13.192Z,9.30
2022-12-25T17:41:39.940Z,9.30
2022-12-25T17:44:06.868Z,9.30
2022-12-25T17:46:33.686Z,9.30
2022-12-25T17:49:01.352Z,9.30
2022-12-25T17:51:30.087Z,9.40
2022-12-25T17:54:03.216Z,9.40
2022-12-25T17:56:30.707Z,9.50
2022-12-25T17:59:00.107Z,9.60
2022-12-25T18:01:28.781Z,9.70
2022-12-25T18:03:56.123Z,9.70
2022-12-25T18:06:28.363Z,9.80
2022-12-25T18:08:56.354Z,9.80
2022-12-25T18:11:27.709Z,9.90
2022-12-25T18:13:55.053Z,9.90
2022-12-25T18:16:24.453Z,9.90
2022-12-25T18:18:52.847Z,10.00
2022-12-25T18:21:21.563Z,10.00
2022-12-25T18:23:48.802Z,10.00
2022-12-25T18:26:15.836Z,9.90
2022-12-25T18:28:43.896Z,9.90
2022-12-25T18:31:17.125Z,10.00
2022-12-25T18:33:44.713Z,10.00
2022-12-25T18:36:13.984Z,10.00
2022-12-25T18:38:40.909Z,10.00
2022-12-25T18:41:09.287Z,10.00
2022-12-25T18:43:53.090Z,10.00
2022-12-25T18:46:26.935Z,10.00
2022-12-25T18:48:57.121Z,10.10
2022-12-25T18:51:24.618Z,10.10
2022-12-25T18:53:55.051Z,10.10
2022-12-25T18:56:21.969Z,10.10
2022-12-25T18:58:48.848Z,10.10
2022-12-25T19:01:19.233Z,10.10
2022-12-25T19:03:46.642Z,10.10
2022-12-25T19:06:25.666Z,10.20
2022-12-25T19:08:52.996Z,10.20
2022-12-25T19:11:20.755Z,10.20
2022-12-25T19:13:47.838Z,10.20
2022-12-25T19:16:14.855Z,10.20
2022-12-25T19:18:43.400Z,10.20
2022-12-25T19:21:10.716Z,10.20
2022-12-25T19:23:38.064Z,10.30
2022-12-25T19:26:07.269Z,10.30
2022-12-25T19:28:34.287Z,10.40
2022-12-25T19:31:01.766Z,10.40
2022-12-25T19:33:30.402Z,10.40
2022-12-25T19:36:01.555Z,10.50
2022-12-25T19:38:28.922Z,10.50
2022-12-25T19:41:01.784Z,10.50
2022-12-25T19:43:30.583Z,10.50
2022-12-25T19:45:57.706Z,10.50
2022-12-25T19:48:25.372Z,10.50
2022-12-25T19:50:52.716Z,10.50
2022-12-25T19:53:23.182Z,10.60
2022-12-25T19:55:53.356Z,10.50
2022-12-25T19:58:26.601Z,10.50
2022-12-25T20:01:00.978Z,10.50
2022-12-25T20:03:28.283Z,10.60
2022-12-25T20:05:55.325Z,10.60
2022-12-25T20:08:22.163Z,10.70
2022-12-25T20:10:49.297Z,10.70
2022-12-25T20:13:16.423Z,10.70
2022-12-25T20:15:43.390Z,10.70
2022-12-25T20:18:10.298Z,10.70
2022-12-25T20:20:37.191Z,10.70
2022-12-25T20:23:04.346Z,10.80
2022-12-25T20:25:31.256Z,10.80
2022-12-25T20:27:58.719Z,10.80
2022-12-25T20:30:25.645Z,10.70
2022-12-25T20:32:53.020Z,10.80
2022-12-25T20:35:19.893Z,10.80
2022-12-25T20:37:46.690Z,10.80
2022-12-25T20:40:14.052Z,10.80
2022-12-25T20:42:40.878Z,10.90
2022-12-25T20:45:07.949Z,10.90
2022-12-25T20:47:35.550Z,10.80
2022-12-25T20:50:02.510Z,10.80
2022-12-25T20:52:29.304Z,10.70
2022-12-25T20:54:56.123Z,10.70
2022-12-25T20:57:22.952Z,10.70
2022-12-25T20:59:49.804Z,10.70
2022-12-25T21:02:35.126Z,10.70
2022-12-25T21:05:08.000Z,10.70
2022-12-25T21:07:34.779Z,10.70
2022-12-25T21:10:01.611Z,10.70
2022-12-25T21:12:28.486Z,10.80
2022-12-25T21:14:55.265Z,10.70
2022-12-25T21:17:22.062Z,10.70
2022-12-25T21:19:48.934Z,10.70
2022-12-25T21:22:15.712Z,10.80
2022-12-25T21:24:42.637Z,10.80
2022-12-25T21:27:09.490Z,10.90
2022-12-25T21:29:36.486Z,10.90
2022-12-25T21:32:21.715Z,10.80
2022-12-25T21:34:48.423Z,10.90
2022-12-25T21:39:40.697Z,10.80
2022-12-25T21:42:07.402Z,10.80
2022-12-25T21:44:34.173Z,10.70
2022-12-25T21:47:00.918Z,10.70
2022-12-25T21:49:46.350Z,10.80
2022-12-25T21:52:13.173Z,10.80
2022-12-25T21:54:39.891Z,10.80
2022-12-25T21:57:06.664Z,10.80
2022-12-25T21:59:33.531Z,10.80
2022-12-25T22:02:00.483Z,10.70
2022-12-25T22:04:27.407Z,10.70
2022-12-25T22:07:15.524Z,10.80
2022-12-25T22:09:47.074Z,10.70
2022-12-25T22:12:34.719Z,10.70
2022-12-25T22:15:03.945Z,10.70
2022-12-25T22:17:53.916Z,10.70
2022-12-25T22:20:25.737Z,10.70
2022-12-25T22:22:53.486Z,10.70
2022-12-25T22:25:20.960Z,10.70
2022-12-25T22:27:48.294Z,10.70
2022-12-25T22:30:23.095Z,10.70
2022-12-25T22:32:50.853Z,10.70
2022-12-25T22:35:18.819Z,10.70
2022-12-25T22:37:45.994Z,10.60
2022-12-25T22:40:15.630Z,10.60
2022-12-25T22:42:42.812Z,10.60
2022-12-25T22:45:09.988Z,10.60
2022-12-25T22:47:36.968Z,10.60
2022-12-25T22:50:04.513Z,10.60
2022-12-25T22:52:31.327Z,10.70
2022-12-25T22:54:58.220Z,10.70
2022-12-25T22:57:25.579Z,10.70
2022-12-25T22:59:53.117Z,10.70
2022-12-25T23:02:20.311Z,10.70
2022-12-25T23:04:47.255Z,10.70
2022-12-25T23:07:15.161Z,10.70
2022-12-25T23:09:42.756Z,10.70
2022-12-25T23:12:30.660Z,10.70
2022-12-25T23:14:57.723Z,10.70
2022-12-25T23:17:43.465Z,10.70
2022-12-25T23:20:31.501Z,10.70
2022-12-25T23:23:17.146Z,10.70
2022-12-25T23:26:02.754Z,10.70
2022-12-25T23:28:48.485Z,10.70
2022-12-25T23:31:15.377Z,10.70
2022-12-25T23:33:42.201Z,10.60
2022-12-25T23:36:09.098Z,10.70
2022-12-25T23:38:35.870Z,10.60
2022-12-25T23:41:02.615Z,10.60
2022-12-25T23:43:29.445Z,10.60
2022-12-25T23:45:56.175Z,10.60
2022-12-25T23:48:22.948Z,10.70
2022-12-25T23:50:49.688Z,10.70
2022-12-25T23:53:16.531Z,10.70
2022-12-25T23:55:43.558Z,10.70
2022-12-25T23:58:10.605Z,10.70
